createdAt,value
2017-05-20T00:02:22.087Z,8.50
2017-05-20T00:04:50.324Z,8.50
2017-05-20T00:07:18.543Z,8.40
2017-05-20T00:09:46.767Z,8.40
2017-05-20T00:12:14.989Z,8.50
2017-05-20T00:14:42.456Z,8.40
2017-05-20T00:17:10.677Z,8.50
2017-05-20T00:19:38.904Z,8.60
2017-05-20T00:22:07.123Z,8.40
2017-05-20T00:24:35.365Z,8.40
2017-05-20T00:27:03.582Z,8.40
2017-05-20T00:29:31.806Z,8.50
2017-05-20T00:32:00.031Z,8.40
2017-05-20T00:34:28.244Z,8.30
2017-05-20T00:36:56.472Z,8.10
2017-05-20T00:39:24.684Z,8.10
2017-05-20T00:41:52.142Z,8.10
2017-05-20T00:44:20.365Z,8.10
2017-05-20T00:46:48.592Z,8.00
2017-05-20T00:49:16.812Z,8.00
2017-05-20T00:51:45.035Z,8.20
2017-05-20T00:54:13.253Z,8.30
2017-05-20T00:56:41.488Z,8.20
2017-05-20T00:59:09.703Z,7.90
2017-05-20T01:01:37.920Z,8.00
2017-05-20T01:04:06.144Z,7.90
2017-05-20T01:06:34.363Z,8.00
2017-05-20T01:09:02.590Z,7.90
2017-05-20T01:11:30.811Z,7.80
2017-05-20T01:13:59.035Z,7.70
2017-05-20T01:16:27.256Z,7.60
2017-05-20T01:18:55.488Z,7.70
2017-05-20T01:21:23.711Z,7.80
2017-05-20T01:23:51.929Z,7.80
2017-05-20T01:26:20.149Z,7.80
2017-05-20T01:28:48.367Z,7.70
2017-05-20T01:31:16.587Z,7.50
2017-05-20T01:33:44.831Z,7.60
2017-05-20T01:36:13.052Z,7.50
2017-05-20T01:38:41.264Z,7.50
2017-05-20T01:41:09.499Z,7.60
2017-05-20T01:43:37.707Z,7.50
2017-05-20T01:46:05.948Z,7.40
2017-05-20T01:48:34.173Z,7.30
2017-05-20T01:51:02.398Z,7.30
2017-05-20T01:53:30.619Z,7.40
2017-05-20T01:55:58.844Z,7.40
2017-05-20T01:58:27.065Z,7.40
2017-05-20T02:00:55.312Z,7.50
2017-05-20T02:03:23.539Z,7.60
2017-05-20T02:05:51.766Z,7.30
2017-05-20T02:08:19.987Z,7.40
2017-05-20T02:10:48.215Z,7.40
2017-05-20T02:13:16.440Z,7.40
2017-05-20T02:15:44.654Z,7.50
2017-05-20T02:18:12.880Z,7.50
2017-05-20T02:20:41.103Z,7.30
2017-05-20T02:23:09.328Z,7.40
2017-05-20T02:25:37.551Z,7.20
2017-05-20T02:28:05.776Z,7.10
2017-05-20T02:30:33.999Z,7.00
2017-05-20T02:33:02.224Z,7.20
2017-05-20T02:35:30.443Z,7.30
2017-05-20T02:37:58.666Z,7.30
2017-05-20T02:40:26.889Z,7.20
2017-05-20T02:42:55.125Z,7.10
2017-05-20T02:45:23.348Z,7.20
2017-05-20T02:47:51.558Z,7.00
2017-05-20T02:50:19.783Z,7.10
2017-05-20T02:52:48.002Z,7.30
2017-05-20T02:55:16.244Z,7.30
2017-05-20T02:57:44.455Z,7.20
2017-05-20T03:00:12.687Z,7.10
2017-05-20T03:02:40.905Z,7.20
2017-05-20T03:05:09.140Z,7.10
2017-05-20T03:07:37.352Z,7.00
2017-05-20T03:10:05.575Z,6.70
2017-05-20T03:12:33.796Z,6.90
2017-05-20T03:15:02.036Z,6.80
2017-05-20T03:17:30.256Z,6.80
2017-05-20T03:19:58.492Z,6.90
2017-05-20T03:22:26.713Z,7.00
2017-05-20T03:24:54.941Z,7.00
2017-05-20T03:27:23.163Z,7.00
2017-05-20T03:29:51.387Z,6.80
2017-05-20T03:32:19.611Z,6.80
2017-05-20T03:34:47.837Z,6.60
2017-05-20T03:37:16.051Z,6.50
2017-05-20T03:39:44.292Z,6.50
2017-05-20T03:42:12.516Z,6.40
2017-05-20T03:44:40.732Z,6.30
2017-05-20T03:47:08.955Z,6.30
2017-05-20T03:49:37.183Z,6.30
2017-05-20T03:52:05.411Z,6.20
2017-05-20T03:54:33.632Z,6.30
2017-05-20T03:57:01.847Z,6.30
2017-05-20T03:59:30.080Z,6.30
2017-05-20T04:01:58.291Z,6.40
2017-05-20T04:04:26.515Z,6.50
2017-05-20T04:06:54.727Z,6.40
2017-05-20T04:09:22.955Z,6.40
2017-05-20T04:11:51.169Z,6.30
2017-05-20T04:14:19.408Z,6.40
2017-05-20T04:16:47.622Z,6.40
2017-05-20T04:19:15.851Z,6.40
2017-05-20T04:21:44.063Z,6.70
2017-05-20T04:24:12.284Z,6.70
2017-05-20T04:26:40.507Z,6.80
2017-05-20T04:29:08.748Z,6.90
2017-05-20T04:31:36.964Z,6.90
2017-05-20T04:34:05.191Z,6.90
2017-05-20T04:36:33.417Z,6.90
2017-05-20T04:39:01.629Z,6.90
2017-05-20T04:41:29.855Z,7.00
2017-05-20T04:43:58.078Z,7.10
2017-05-20T04:46:26.304Z,7.10
2017-05-20T04:48:54.535Z,7.00
2017-05-20T04:51:22.751Z,7.00
2017-05-20T04:53:50.967Z,7.00
2017-05-20T04:56:19.182Z,7.10
2017-05-20T04:58:47.400Z,7.20
2017-05-20T05:01:15.644Z,7.30
2017-05-20T05:03:43.866Z,7.20
2017-05-20T05:06:12.092Z,7.20
2017-05-20T05:08:40.322Z,7.20
2017-05-20T05:11:08.543Z,7.40
2017-05-20T05:13:36.783Z,7.80
2017-05-20T05:16:05.003Z,8.40
2017-05-20T05:18:33.231Z,9.30
2017-05-20T05:21:01.444Z,10.30
2017-05-20T05:23:29.667Z,11.30
2017-05-20T05:25:57.887Z,12.20
2017-05-20T05:28:26.128Z,12.70
2017-05-20T05:30:54.351Z,13.30
2017-05-20T05:33:22.599Z,14.10
2017-05-20T05:35:50.816Z,15.00
2017-05-20T05:38:19.048Z,15.80
2017-05-20T05:40:47.268Z,16.10
2017-05-20T05:43:15.500Z,16.90
2017-05-20T05:45:43.721Z,17.90
2017-05-20T05:48:11.949Z,18.60
2017-05-20T05:50:40.167Z,19.10
2017-05-20T05:53:08.392Z,19.50
2017-05-20T05:55:36.634Z,19.80
2017-05-20T05:58:04.869Z,20.30
2017-05-20T06:00:33.099Z,20.60
2017-05-20T06:03:01.312Z,21.00
2017-05-20T06:05:29.543Z,21.40
2017-05-20T06:07:57.785Z,21.60
2017-05-20T06:10:26.024Z,21.10
2017-05-20T06:12:54.260Z,21.10
2017-05-20T06:15:22.475Z,20.10
2017-05-20T06:17:50.759Z,19.60
2017-05-20T06:20:18.991Z,19.80
2017-05-20T06:22:47.219Z,19.90
2017-05-20T06:25:15.439Z,20.40
2017-05-20T06:27:43.716Z,20.70
2017-05-20T06:30:11.935Z,21.00
2017-05-20T06:32:40.165Z,21.20
2017-05-20T06:35:08.376Z,21.40
2017-05-20T06:37:36.600Z,21.10
2017-05-20T06:40:04.852Z,21.00
2017-05-20T06:42:33.104Z,20.70
2017-05-20T06:45:01.338Z,21.50
2017-05-20T06:47:29.588Z,21.60
2017-05-20T06:49:57.809Z,21.20
2017-05-20T06:52:26.029Z,20.30
2017-05-20T06:54:54.243Z,20.80
2017-05-20T06:57:22.467Z,20.20
2017-05-20T06:59:50.705Z,20.80
2017-05-20T07:02:18.934Z,21.40
2017-05-20T07:04:47.155Z,21.30
2017-05-20T07:07:15.383Z,21.90
2017-05-20T07:09:43.604Z,21.90
2017-05-20T07:12:11.831Z,22.30
2017-05-20T07:14:40.053Z,22.90
2017-05-20T07:17:08.552Z,22.50
2017-05-20T07:19:40.880Z,22.10
2017-05-20T07:22:09.143Z,22.20
2017-05-20T07:24:37.364Z,22.20
2017-05-20T07:27:05.710Z,22.80
2017-05-20T07:29:33.933Z,23.00
2017-05-20T07:32:02.168Z,23.50
2017-05-20T07:34:30.380Z,22.80
2017-05-20T07:36:58.616Z,23.40
2017-05-20T07:39:26.827Z,23.40
2017-05-20T07:41:55.060Z,20.20
2017-05-20T07:44:23.275Z,20.90
2017-05-20T07:46:51.501Z,20.90
2017-05-20T07:49:19.724Z,18.90
2017-05-20T07:51:47.943Z,18.90
2017-05-20T07:54:16.172Z,18.80
2017-05-20T07:56:44.391Z,17.40
2017-05-20T07:59:12.609Z,18.70
2017-05-20T08:01:40.864Z,20.10
2017-05-20T08:04:09.083Z,19.60
2017-05-20T08:06:37.307Z,19.90
2017-05-20T08:09:05.547Z,20.50
2017-05-20T08:11:33.764Z,19.20
2017-05-20T08:14:01.991Z,18.00
2017-05-20T08:16:30.210Z,18.20
2017-05-20T08:18:58.431Z,18.90
2017-05-20T08:21:26.651Z,19.90
2017-05-20T08:23:54.888Z,20.70
2017-05-20T08:26:23.100Z,20.90
2017-05-20T08:28:51.316Z,20.70
2017-05-20T08:31:19.531Z,19.40
2017-05-20T08:33:47.754Z,18.80
2017-05-20T08:36:15.972Z,19.40
2017-05-20T08:38:44.188Z,20.80
2017-05-20T08:41:12.407Z,20.10
2017-05-20T08:43:40.632Z,18.60
2017-05-20T08:46:08.855Z,19.60
2017-05-20T08:48:37.076Z,19.20
2017-05-20T08:51:05.308Z,18.80
2017-05-20T08:53:33.524Z,17.50
2017-05-20T08:56:01.740Z,17.60
2017-05-20T08:58:29.965Z,17.30
2017-05-20T09:00:58.175Z,16.60
2017-05-20T09:03:26.400Z,16.10
2017-05-20T09:05:54.624Z,16.40
2017-05-20T09:08:22.849Z,17.00
2017-05-20T09:10:51.067Z,17.40
2017-05-20T09:13:19.284Z,17.70
2017-05-20T09:15:47.512Z,17.60
2017-05-20T09:18:15.744Z,17.00
2017-05-20T09:20:43.960Z,17.00
2017-05-20T09:23:12.192Z,17.30
2017-05-20T09:25:40.411Z,17.60
2017-05-20T09:28:08.635Z,17.70
2017-05-20T09:30:36.852Z,17.70
2017-05-20T09:33:05.088Z,17.10
2017-05-20T09:35:33.303Z,16.60
2017-05-20T09:38:01.518Z,16.40
2017-05-20T09:40:29.743Z,16.90
2017-05-20T09:42:57.965Z,16.90
2017-05-20T09:45:26.185Z,17.40
2017-05-20T09:47:54.409Z,18.30
2017-05-20T09:50:22.631Z,17.70
2017-05-20T09:52:50.871Z,18.90
2017-05-20T09:55:19.091Z,19.20
2017-05-20T09:57:47.307Z,19.70
2017-05-20T10:00:15.543Z,18.20
2017-05-20T10:02:43.763Z,19.00
2017-05-20T10:05:11.995Z,19.70
2017-05-20T10:07:40.215Z,19.30
2017-05-20T10:10:08.436Z,18.80
2017-05-20T10:12:36.660Z,19.20
2017-05-20T10:15:04.871Z,19.20
2017-05-20T10:17:33.100Z,19.40
2017-05-20T10:20:01.316Z,18.10
2017-05-20T10:22:29.549Z,17.30
2017-05-20T10:24:57.772Z,16.90
2017-05-20T10:27:25.997Z,16.60
2017-05-20T10:29:54.208Z,16.20
2017-05-20T10:32:22.438Z,16.00
2017-05-20T10:34:50.655Z,16.30
2017-05-20T10:37:19.398Z,16.30
2017-05-20T10:39:47.636Z,16.30
2017-05-20T10:42:15.855Z,15.90
2017-05-20T10:44:44.075Z,15.90
2017-05-20T10:47:12.300Z,16.00
2017-05-20T10:49:40.528Z,16.20
2017-05-20T10:52:08.748Z,16.30
2017-05-20T10:54:36.968Z,16.00
2017-05-20T10:57:05.186Z,16.10
2017-05-20T10:59:33.407Z,16.40
2017-05-20T11:02:01.619Z,16.60
2017-05-20T11:04:29.849Z,16.90
2017-05-20T11:06:58.063Z,17.20
2017-05-20T11:09:26.291Z,17.30
2017-05-20T11:11:54.505Z,18.30
2017-05-20T11:14:22.739Z,18.40
2017-05-20T11:16:50.959Z,18.90
2017-05-20T11:19:19.176Z,19.70
2017-05-20T11:21:47.399Z,20.30
2017-05-20T11:24:15.617Z,20.90
2017-05-20T11:26:43.840Z,21.00
2017-05-20T11:29:12.064Z,20.80
2017-05-20T11:31:40.284Z,21.10
2017-05-20T11:34:08.507Z,21.00
2017-05-20T11:36:36.727Z,21.50
2017-05-20T11:39:04.954Z,21.30
2017-05-20T11:41:33.175Z,20.90
2017-05-20T11:44:01.400Z,21.20
2017-05-20T11:46:29.702Z,21.40
2017-05-20T11:48:57.915Z,21.30
2017-05-20T11:51:26.132Z,20.90
2017-05-20T11:53:54.352Z,20.80
2017-05-20T11:56:22.571Z,20.40
2017-05-20T11:58:50.787Z,20.10
2017-05-20T12:01:19.008Z,20.30
2017-05-20T12:03:47.237Z,20.60
2017-05-20T12:06:15.455Z,20.10
2017-05-20T12:08:43.684Z,20.40
2017-05-20T12:11:11.913Z,20.30
2017-05-20T12:13:40.135Z,19.60
2017-05-20T12:16:08.361Z,18.90
2017-05-20T12:18:36.583Z,17.60
2017-05-20T12:21:05.207Z,17.90
2017-05-20T12:23:33.446Z,17.90
2017-05-20T12:26:01.676Z,18.20
2017-05-20T12:28:29.887Z,17.70
2017-05-20T12:30:58.120Z,16.80
2017-05-20T12:33:26.336Z,16.80
2017-05-20T12:35:54.565Z,17.20
2017-05-20T12:38:22.783Z,17.40
2017-05-20T12:40:51.012Z,17.50
2017-05-20T12:43:19.228Z,17.40
2017-05-20T12:45:47.443Z,17.20
2017-05-20T12:48:15.674Z,17.10
2017-05-20T12:50:43.917Z,17.50
2017-05-20T12:53:12.131Z,18.00
2017-05-20T12:55:40.367Z,18.10
2017-05-20T12:58:08.587Z,18.30
2017-05-20T13:00:36.815Z,18.00
2017-05-20T13:03:05.043Z,17.50
2017-05-20T13:05:33.267Z,17.60
2017-05-20T13:08:01.510Z,17.80
2017-05-20T13:10:29.740Z,17.30
2017-05-20T13:12:57.961Z,17.60
2017-05-20T13:15:26.191Z,17.90
2017-05-20T13:17:54.408Z,18.10
2017-05-20T13:20:22.748Z,18.20
2017-05-20T13:22:50.995Z,18.40
2017-05-20T13:25:19.225Z,18.10
2017-05-20T13:27:47.442Z,18.50
2017-05-20T13:30:15.659Z,18.10
2017-05-20T13:32:43.884Z,18.70
2017-05-20T13:35:12.106Z,19.30
2017-05-20T13:37:40.324Z,19.50
2017-05-20T13:40:08.547Z,19.90
2017-05-20T13:42:36.792Z,20.20
2017-05-20T13:45:05.056Z,20.40
2017-05-20T13:47:33.275Z,20.60
2017-05-20T13:50:01.511Z,19.70
2017-05-20T13:52:29.728Z,19.90
2017-05-20T13:54:57.959Z,20.00
2017-05-20T13:57:26.203Z,19.80
2017-05-20T13:59:54.444Z,20.10
2017-05-20T14:02:22.680Z,18.30
2017-05-20T14:04:50.913Z,18.90
2017-05-20T14:07:19.158Z,18.70
2017-05-20T14:09:47.375Z,18.40
2017-05-20T14:12:15.618Z,18.60
2017-05-20T14:14:43.841Z,19.30
2017-05-20T14:17:12.052Z,19.60
2017-05-20T14:19:40.275Z,20.10
2017-05-20T14:22:08.515Z,19.90
2017-05-20T14:24:36.736Z,20.10
2017-05-20T14:27:04.955Z,20.00
2017-05-20T14:29:33.206Z,18.90
2017-05-20T14:32:01.415Z,19.30
2017-05-20T14:34:29.648Z,19.30
2017-05-20T14:36:57.883Z,18.90
2017-05-20T14:39:26.114Z,18.90
2017-05-20T14:41:54.342Z,18.70
2017-05-20T14:44:22.567Z,19.00
2017-05-20T14:46:50.805Z,17.90
2017-05-20T14:49:19.023Z,17.70
2017-05-20T14:51:47.267Z,17.70
2017-05-20T14:54:15.498Z,17.50
2017-05-20T14:56:43.742Z,17.30
2017-05-20T14:59:11.956Z,17.30
2017-05-20T15:01:40.190Z,17.50
2017-05-20T15:04:08.401Z,17.70
2017-05-20T15:06:36.631Z,17.20
2017-05-20T15:09:04.852Z,17.20
2017-05-20T15:11:33.087Z,17.20
2017-05-20T15:14:01.303Z,16.90
2017-05-20T15:16:29.534Z,17.00
2017-05-20T15:18:57.753Z,16.90
2017-05-20T15:21:25.971Z,16.90
2017-05-20T15:23:54.195Z,16.90
2017-05-20T15:26:22.434Z,17.20
2017-05-20T15:28:50.651Z,17.40
2017-05-20T15:31:18.874Z,17.60
2017-05-20T15:33:47.096Z,17.70
2017-05-20T15:36:15.330Z,17.70
2017-05-20T15:38:43.564Z,17.70
2017-05-20T15:41:11.775Z,17.60
2017-05-20T15:43:40.000Z,17.60
2017-05-20T15:46:08.232Z,17.90
2017-05-20T15:48:36.483Z,18.10
2017-05-20T15:51:04.699Z,18.30
2017-05-20T15:53:32.923Z,18.50
2017-05-20T15:56:01.172Z,18.40
2017-05-20T15:58:29.397Z,18.50
2017-05-20T16:00:57.619Z,18.50
2017-05-20T16:03:25.851Z,18.50
2017-05-20T16:05:54.095Z,18.00
2017-05-20T16:08:22.309Z,18.40
2017-05-20T16:10:50.530Z,18.70
2017-05-20T16:13:18.767Z,18.30
2017-05-20T16:15:46.992Z,18.40
2017-05-20T16:18:15.224Z,18.00
2017-05-20T16:20:43.444Z,17.90
2017-05-20T16:23:11.669Z,17.50
2017-05-20T16:25:39.923Z,17.70
2017-05-20T16:28:08.151Z,17.90
2017-05-20T16:30:36.371Z,17.80
2017-05-20T16:33:04.599Z,17.90
2017-05-20T16:35:32.820Z,17.90
2017-05-20T16:38:01.063Z,17.50
2017-05-20T16:40:29.291Z,17.50
2017-05-20T16:42:57.537Z,17.50
2017-05-20T16:45:25.748Z,17.50
2017-05-20T16:47:53.981Z,16.80
2017-05-20T16:50:22.212Z,16.70
2017-05-20T16:52:50.453Z,16.60
2017-05-20T16:55:18.680Z,16.60
2017-05-20T16:57:46.900Z,16.70
2017-05-20T17:00:15.133Z,16.60
2017-05-20T17:02:44.136Z,16.40
2017-05-20T17:05:12.348Z,16.50
2017-05-20T17:07:39.816Z,16.50
2017-05-20T17:10:08.028Z,16.40
2017-05-20T17:12:36.261Z,16.40
2017-05-20T17:15:05.351Z,16.30
2017-05-20T17:17:33.569Z,16.30
2017-05-20T17:20:01.808Z,16.20
2017-05-20T17:22:30.028Z,16.20
2017-05-20T17:24:58.255Z,16.20
2017-05-20T17:27:26.469Z,16.20
2017-05-20T17:29:54.707Z,16.20
2017-05-20T17:32:22.924Z,16.30
2017-05-20T17:34:51.163Z,16.20
2017-05-20T17:37:19.391Z,16.20
2017-05-20T17:39:47.615Z,16.20
2017-05-20T17:42:15.846Z,16.20
2017-05-20T17:44:44.068Z,16.30
2017-05-20T17:47:12.303Z,16.40
2017-05-20T17:49:40.551Z,16.30
2017-05-20T17:52:08.780Z,16.40
2017-05-20T17:54:37.018Z,16.50
2017-05-20T17:57:05.239Z,16.40
2017-05-20T17:59:33.475Z,16.50
2017-05-20T18:02:01.698Z,16.60
2017-05-20T18:04:29.939Z,16.50
2017-05-20T18:06:58.170Z,16.50
2017-05-20T18:09:26.383Z,16.60
2017-05-20T18:11:54.628Z,16.50
2017-05-20T18:14:22.848Z,16.50
2017-05-20T18:16:51.639Z,16.50
2017-05-20T18:19:19.877Z,16.40
2017-05-20T18:21:48.471Z,16.50
2017-05-20T18:24:16.685Z,16.50
2017-05-20T18:26:44.920Z,16.50
2017-05-20T18:29:13.151Z,16.50
2017-05-20T18:31:41.404Z,16.50
2017-05-20T18:34:09.640Z,16.30
2017-05-20T18:36:37.851Z,16.30
2017-05-20T18:39:06.086Z,16.20
2017-05-20T18:41:34.300Z,16.20
2017-05-20T18:44:02.527Z,16.10
2017-05-20T18:46:30.763Z,16.10
2017-05-20T18:48:59.005Z,16.10
2017-05-20T18:51:27.215Z,16.10
2017-05-20T18:53:55.455Z,16.00
2017-05-20T18:56:23.780Z,15.90
2017-05-20T18:58:52.031Z,15.90
2017-05-20T19:01:20.249Z,15.80
2017-05-20T19:03:48.467Z,15.70
2017-05-20T19:06:16.703Z,15.70
2017-05-20T19:08:44.970Z,15.40
2017-05-20T19:11:13.322Z,15.40
2017-05-20T19:13:41.583Z,15.30
2017-05-20T19:16:09.833Z,15.20
2017-05-20T19:18:38.212Z,15.20
2017-05-20T19:21:06.488Z,15.00
2017-05-20T19:23:34.706Z,14.40
2017-05-20T19:26:02.946Z,13.80
2017-05-20T19:28:31.159Z,13.50
2017-05-20T19:30:59.398Z,13.30
2017-05-20T19:33:27.612Z,13.20
2017-05-20T19:35:55.858Z,13.10
2017-05-20T19:38:24.079Z,12.90
2017-05-20T19:40:52.303Z,12.90
2017-05-20T19:43:20.548Z,12.70
2017-05-20T19:45:48.799Z,12.80
2017-05-20T19:48:17.025Z,12.40
2017-05-20T19:50:45.251Z,12.40
2017-05-20T19:53:13.482Z,12.30
2017-05-20T19:55:41.700Z,12.20
2017-05-20T19:58:09.921Z,12.00
2017-05-20T20:00:38.236Z,11.90
2017-05-20T20:03:06.823Z,11.90
2017-05-20T20:05:35.062Z,11.80
2017-05-20T20:08:03.634Z,11.70
2017-05-20T20:10:31.862Z,11.60
2017-05-20T20:13:00.102Z,11.50
2017-05-20T20:15:28.315Z,11.70
2017-05-20T20:17:56.535Z,11.70
2017-05-20T20:20:24.755Z,11.80
2017-05-20T20:22:52.996Z,11.90
2017-05-20T20:25:21.211Z,11.60
2017-05-20T20:27:49.437Z,11.70
2017-05-20T20:30:17.667Z,11.60
2017-05-20T20:32:45.884Z,11.30
2017-05-20T20:35:14.108Z,11.30
2017-05-20T20:37:42.343Z,11.30
2017-05-20T20:40:10.581Z,11.30
2017-05-20T20:42:38.792Z,11.30
2017-05-20T20:45:07.015Z,11.00
2017-05-20T20:47:35.247Z,10.70
2017-05-20T20:50:03.505Z,10.50
2017-05-20T20:52:32.506Z,10.40
2017-05-20T20:54:59.987Z,10.40
2017-05-20T20:57:28.277Z,10.60
2017-05-20T20:59:56.515Z,10.60
2017-05-20T21:02:24.754Z,10.70
2017-05-20T21:04:52.983Z,10.70
2017-05-20T21:07:21.220Z,10.70
2017-05-20T21:09:49.450Z,10.70
2017-05-20T21:12:17.676Z,10.70
2017-05-20T21:14:45.920Z,10.70
2017-05-20T21:17:15.188Z,10.70
2017-05-20T21:19:43.399Z,10.60
2017-05-20T21:22:11.643Z,10.50
2017-05-20T21:24:39.882Z,10.50
2017-05-20T21:27:08.128Z,10.60
2017-05-20T21:29:36.355Z,10.60
2017-05-20T21:32:04.575Z,10.60
2017-05-20T21:34:32.811Z,10.40
2017-05-20T21:37:01.040Z,10.30
2017-05-20T21:39:29.274Z,10.20
2017-05-20T21:41:57.607Z,9.90
2017-05-20T21:44:25.838Z,9.70
2017-05-20T21:46:54.059Z,9.90
2017-05-20T21:49:22.291Z,9.90
2017-05-20T21:51:50.523Z,9.90
2017-05-20T21:54:18.783Z,9.80
2017-05-20T21:56:46.988Z,9.70
2017-05-20T21:59:15.235Z,9.70
2017-05-20T22:01:43.500Z,9.20
2017-05-20T22:04:11.743Z,9.10
2017-05-20T22:06:39.964Z,9.10
2017-05-20T22:09:08.190Z,9.40
2017-05-20T22:11:36.434Z,9.50
2017-05-20T22:14:04.670Z,9.50
2017-05-20T22:16:32.895Z,9.40
2017-05-20T22:19:01.111Z,9.50
2017-05-20T22:21:29.341Z,9.40
2017-05-20T22:23:57.559Z,9.20
2017-05-20T22:26:25.783Z,9.00
2017-05-20T22:28:54.003Z,9.00
2017-05-20T22:31:22.228Z,9.20
2017-05-20T22:33:50.456Z,9.10
2017-05-20T22:36:18.686Z,8.80
2017-05-20T22:38:46.903Z,8.90
2017-05-20T22:41:15.131Z,9.00
2017-05-20T22:43:43.358Z,9.00
2017-05-20T22:46:11.586Z,8.90
2017-05-20T22:48:39.829Z,9.00
2017-05-20T22:51:08.068Z,9.10
2017-05-20T22:53:36.284Z,9.10
2017-05-20T22:56:04.491Z,9.00
2017-05-20T22:58:32.717Z,8.90
2017-05-20T23:01:00.928Z,8.90
2017-05-20T23:03:29.174Z,8.80
2017-05-20T23:05:57.384Z,8.80
2017-05-20T23:08:25.625Z,8.80
2017-05-20T23:10:53.863Z,8.80
2017-05-20T23:13:22.075Z,8.70
2017-05-20T23:15:50.326Z,8.80
2017-05-20T23:18:18.539Z,8.80
2017-05-20T23:20:46.763Z,8.90
2017-05-20T23:23:15.003Z,8.90
2017-05-20T23:25:43.236Z,8.70
2017-05-20T23:28:11.444Z,8.60
2017-05-20T23:30:39.677Z,8.70
2017-05-20T23:33:07.888Z,8.60
2017-05-20T23:35:36.123Z,8.60
2017-05-20T23:38:04.346Z,8.60
2017-05-20T23:40:32.567Z,8.70
2017-05-20T23:43:00.801Z,8.80
2017-05-20T23:45:29.054Z,8.40
2017-05-20T23:47:57.287Z,8.20
2017-05-20T23:50:25.499Z,8.10
2017-05-20T23:52:53.738Z,8.30
2017-05-20T23:55:21.954Z,8.30
2017-05-20T23:57:50.192Z,8.30
